sensor_id;sensor_type;location;lat;lon;timestamp;P1;durP1;ratioP1;P2;durP2;ratioP2
9761;SDS011;4920;49.594;11.022;2023-07-20T00:00:03;10.88;;;5.70;;
9761;SDS011;4920;49.594;11.022;2023-07-20T00:02:51;9.95;;;5.68;;
9761;SDS011;4920;49.594;11.022;2023-07-20T00:05:20;10.35;;;5.78;;
9761;SDS011;4920;49.594;11.022;2023-07-20T00:07:53;12.75;;;6.53;;
9761;SDS011;4920;49.594;11.022;2023-07-20T00:10:22;9.70;;;6.10;;
9761;SDS011;4920;49.594;11.022;2023-07-20T00:12:51;7.88;;;6.25;;
9761;SDS011;4920;49.594;11.022;2023-07-20T00:15:19;10.45;;;6.55;;
9761;SDS011;4920;49.594;11.022;2023-07-20T00:17:48;12.57;;;7.20;;
9761;SDS011;4920;49.594;11.022;2023-07-20T00:20:18;12.73;;;6.43;;
9761;SDS011;4920;49.594;11.022;2023-07-20T00:22:47;12.93;;;6.75;;
9761;SDS011;4920;49.594;11.022;2023-07-20T00:25:19;13.93;;;6.80;;
9761;SDS011;4920;49.594;11.022;2023-07-20T00:27:48;12.23;;;6.50;;
9761;SDS011;4920;49.594;11.022;2023-07-20T00:30:19;12.13;;;6.75;;
9761;SDS011;4920;49.594;11.022;2023-07-20T00:32:48;12.82;;;6.55;;
9761;SDS011;4920;49.594;11.022;2023-07-20T00:35:17;13.38;;;6.88;;
9761;SDS011;4920;49.594;11.022;2023-07-20T00:37:46;11.10;;;6.72;;
9761;SDS011;4920;49.594;11.022;2023-07-20T00:40:15;12.18;;;6.97;;
9761;SDS011;4920;49.594;11.022;2023-07-20T00:42:46;8.95;;;6.90;;
9761;SDS011;4920;49.594;11.022;2023-07-20T00:45:20;13.15;;;6.72;;
9761;SDS011;4920;49.594;11.022;2023-07-20T00:47:50;11.60;;;6.65;;
9761;SDS011;4920;49.594;11.022;2023-07-20T00:50:19;11.70;;;6.97;;
9761;SDS011;4920;49.594;11.022;2023-07-20T00:52:48;11.98;;;6.97;;
9761;SDS011;4920;49.594;11.022;2023-07-20T00:55:18;9.85;;;6.22;;
9761;SDS011;4920;49.594;11.022;2023-07-20T00:57:48;9.73;;;5.97;;
9761;SDS011;4920;49.594;11.022;2023-07-20T01:00:18;12.20;;;6.10;;
9761;SDS011;4920;49.594;11.022;2023-07-20T01:02:50;9.32;;;5.25;;
9761;SDS011;4920;49.594;11.022;2023-07-20T01:05:20;10.73;;;5.88;;
9761;SDS011;4920;49.594;11.022;2023-07-20T01:07:51;15.20;;;6.18;;
9761;SDS011;4920;49.594;11.022;2023-07-20T01:10:29;8.55;;;5.78;;
9761;SDS011;4920;49.594;11.022;2023-07-20T01:13:06;11.13;;;5.65;;
9761;SDS011;4920;49.594;11.022;2023-07-20T01:15:38;11.40;;;6.15;;
9761;SDS011;4920;49.594;11.022;2023-07-20T01:18:06;9.07;;;6.32;;
9761;SDS011;4920;49.594;11.022;2023-07-20T01:20:35;11.25;;;6.40;;
9761;SDS011;4920;49.594;11.022;2023-07-20T01:23:20;8.63;;;6.00;;
9761;SDS011;4920;49.594;11.022;2023-07-20T01:26:01;9.23;;;6.65;;
9761;SDS011;4920;49.594;11.022;2023-07-20T01:28:47;9.05;;;6.85;;
9761;SDS011;4920;49.594;11.022;2023-07-20T01:31:28;10.13;;;7.30;;
9761;SDS011;4920;49.594;11.022;2023-07-20T01:34:00;11.05;;;6.97;;
9761;SDS011;4920;49.594;11.022;2023-07-20T01:36:33;8.73;;;6.57;;
9761;SDS011;4920;49.594;11.022;2023-07-20T01:39:04;11.00;;;6.35;;
9761;SDS011;4920;49.594;11.022;2023-07-20T01:41:34;9.57;;;6.53;;
9761;SDS011;4920;49.594;11.022;2023-07-20T01:44:03;8.63;;;6.40;;
9761;SDS011;4920;49.594;11.022;2023-07-20T01:46:33;12.82;;;6.15;;
9761;SDS011;4920;49.594;11.022;2023-07-20T01:49:02;6.88;;;5.72;;
9761;SDS011;4920;49.594;11.022;2023-07-20T01:51:31;10.63;;;6.15;;
9761;SDS011;4920;49.594;11.022;2023-07-20T01:54:00;8.32;;;6.63;;
9761;SDS011;4920;49.594;11.022;2023-07-20T01:56:29;9.50;;;6.80;;
9761;SDS011;4920;49.594;11.022;2023-07-20T01:58:57;10.18;;;6.63;;
9761;SDS011;4920;49.594;11.022;2023-07-20T02:01:26;10.05;;;6.90;;
9761;SDS011;4920;49.594;11.022;2023-07-20T02:03:58;10.32;;;6.90;;
9761;SDS011;4920;49.594;11.022;2023-07-20T02:06:28;9.88;;;6.97;;
9761;SDS011;4920;49.594;11.022;2023-07-20T02:08:56;11.25;;;6.40;;
9761;SDS011;4920;49.594;11.022;2023-07-20T02:11:25;9.85;;;6.53;;
9761;SDS011;4920;49.594;11.022;2023-07-20T02:13:54;10.68;;;6.82;;
9761;SDS011;4920;49.594;11.022;2023-07-20T02:16:23;8.52;;;6.20;;
9761;SDS011;4920;49.594;11.022;2023-07-20T02:18:52;7.82;;;5.90;;
9761;SDS011;4920;49.594;11.022;2023-07-20T02:21:25;11.27;;;6.50;;
9761;SDS011;4920;49.594;11.022;2023-07-20T02:23:54;9.43;;;6.35;;
9761;SDS011;4920;49.594;11.022;2023-07-20T02:26:23;8.02;;;6.05;;
9761;SDS011;4920;49.594;11.022;2023-07-20T02:28:52;10.80;;;6.50;;
9761;SDS011;4920;49.594;11.022;2023-07-20T02:31:20;10.75;;;7.03;;
9761;SDS011;4920;49.594;11.022;2023-07-20T02:33:49;7.88;;;6.25;;
9761;SDS011;4920;49.594;11.022;2023-07-20T02:36:18;10.75;;;6.65;;
9761;SDS011;4920;49.594;11.022;2023-07-20T02:38:49;8.70;;;6.43;;
9761;SDS011;4920;49.594;11.022;2023-07-20T02:41:18;7.95;;;6.25;;
9761;SDS011;4920;49.594;11.022;2023-07-20T02:43:47;10.50;;;6.63;;
9761;SDS011;4920;49.594;11.022;2023-07-20T02:46:16;10.02;;;6.55;;
9761;SDS011;4920;49.594;11.022;2023-07-20T02:48:45;8.48;;;6.35;;
9761;SDS011;4920;49.594;11.022;2023-07-20T02:51:14;7.45;;;6.47;;
9761;SDS011;4920;49.594;11.022;2023-07-20T02:53:43;9.73;;;6.55;;
9761;SDS011;4920;49.594;11.022;2023-07-20T02:56:14;8.88;;;7.00;;
9761;SDS011;4920;49.594;11.022;2023-07-20T02:58:42;10.48;;;6.90;;
9761;SDS011;4920;49.594;11.022;2023-07-20T03:01:13;8.20;;;6.75;;
9761;SDS011;4920;49.594;11.022;2023-07-20T03:03:42;11.07;;;6.70;;
9761;SDS011;4920;49.594;11.022;2023-07-20T03:06:14;11.15;;;7.25;;
9761;SDS011;4920;49.594;11.022;2023-07-20T03:08:43;10.60;;;7.53;;
9761;SDS011;4920;49.594;11.022;2023-07-20T03:11:16;9.65;;;6.95;;
9761;SDS011;4920;49.594;11.022;2023-07-20T03:13:46;8.60;;;7.15;;
9761;SDS011;4920;49.594;11.022;2023-07-20T03:16:17;11.73;;;7.25;;
9761;SDS011;4920;49.594;11.022;2023-07-20T03:18:47;14.18;;;7.28;;
9761;SDS011;4920;49.594;11.022;2023-07-20T03:21:16;8.73;;;6.95;;
9761;SDS011;4920;49.594;11.022;2023-07-20T03:23:45;10.80;;;7.18;;
9761;SDS011;4920;49.594;11.022;2023-07-20T03:26:14;10.30;;;6.90;;
9761;SDS011;4920;49.594;11.022;2023-07-20T03:28:44;9.90;;;7.13;;
9761;SDS011;4920;49.594;11.022;2023-07-20T03:31:13;9.50;;;6.88;;
9761;SDS011;4920;49.594;11.022;2023-07-20T03:33:42;11.18;;;7.38;;
9761;SDS011;4920;49.594;11.022;2023-07-20T03:36:11;10.50;;;6.63;;
9761;SDS011;4920;49.594;11.022;2023-07-20T03:38:40;11.63;;;6.50;;
9761;SDS011;4920;49.594;11.022;2023-07-20T03:41:09;9.00;;;6.90;;
9761;SDS011;4920;49.594;11.022;2023-07-20T03:43:38;12.77;;;6.80;;
9761;SDS011;4920;49.594;11.022;2023-07-20T03:46:09;10.57;;;6.60;;
9761;SDS011;4920;49.594;11.022;2023-07-20T03:48:38;10.80;;;6.60;;
9761;SDS011;4920;49.594;11.022;2023-07-20T03:51:07;10.82;;;6.70;;
9761;SDS011;4920;49.594;11.022;2023-07-20T03:53:35;10.48;;;6.38;;
9761;SDS011;4920;49.594;11.022;2023-07-20T03:56:04;8.95;;;6.38;;
9761;SDS011;4920;49.594;11.022;2023-07-20T03:58:33;11.00;;;6.70;;
9761;SDS011;4920;49.594;11.022;2023-07-20T04:01:02;9.10;;;6.60;;
9761;SDS011;4920;49.594;11.022;2023-07-20T04:03:32;10.32;;;5.95;;
9761;SDS011;4920;49.594;11.022;2023-07-20T04:06:01;10.45;;;6.32;;
9761;SDS011;4920;49.594;11.022;2023-07-20T04:08:29;10.00;;;6.80;;
9761;SDS011;4920;49.594;11.022;2023-07-20T04:11:00;10.20;;;6.22;;
9761;SDS011;4920;49.594;11.022;2023-07-20T04:13:29;10.95;;;6.72;;
9761;SDS011;4920;49.594;11.022;2023-07-20T04:16:00;11.38;;;6.90;;
9761;SDS011;4920;49.594;11.022;2023-07-20T04:18:29;10.95;;;6.70;;
9761;SDS011;4920;49.594;11.022;2023-07-20T04:20:59;11.43;;;6.18;;
9761;SDS011;4920;49.594;11.022;2023-07-20T04:23:28;11.18;;;6.75;;
9761;SDS011;4920;49.594;11.022;2023-07-20T04:25:57;9.30;;;5.95;;
9761;SDS011;4920;49.594;11.022;2023-07-20T04:28:26;13.48;;;5.85;;
9761;SDS011;4920;49.594;11.022;2023-07-20T04:30:58;10.73;;;5.53;;
9761;SDS011;4920;49.594;11.022;2023-07-20T04:33:38;8.82;;;5.88;;
9761;SDS011;4920;49.594;11.022;2023-07-20T04:36:08;12.50;;;5.72;;
9761;SDS011;4920;49.594;11.022;2023-07-20T04:38:37;9.98;;;5.70;;
9761;SDS011;4920;49.594;11.022;2023-07-20T04:41:17;11.60;;;5.78;;
9761;SDS011;4920;49.594;11.022;2023-07-20T04:43:48;9.82;;;5.75;;
9761;SDS011;4920;49.594;11.022;2023-07-20T04:46:24;9.02;;;5.60;;
9761;SDS011;4920;49.594;11.022;2023-07-20T04:48:54;9.68;;;5.60;;
9761;SDS011;4920;49.594;11.022;2023-07-20T04:51:25;9.10;;;5.35;;
9761;SDS011;4920;49.594;11.022;2023-07-20T04:53:54;11.40;;;5.28;;
9761;SDS011;4920;49.594;11.022;2023-07-20T04:56:25;12.43;;;5.57;;
9761;SDS011;4920;49.594;11.022;2023-07-20T04:58:55;10.15;;;5.43;;
9761;SDS011;4920;49.594;11.022;2023-07-20T05:01:24;12.38;;;5.65;;
9761;SDS011;4920;49.594;11.022;2023-07-20T05:03:53;9.10;;;5.82;;
9761;SDS011;4920;49.594;11.022;2023-07-20T05:06:22;7.78;;;5.55;;
9761;SDS011;4920;49.594;11.022;2023-07-20T05:08:52;10.02;;;5.43;;
9761;SDS011;4920;49.594;11.022;2023-07-20T05:11:21;8.13;;;5.28;;
9761;SDS011;4920;49.594;11.022;2023-07-20T05:13:50;9.80;;;4.80;;
9761;SDS011;4920;49.594;11.022;2023-07-20T05:16:19;7.78;;;4.60;;
9761;SDS011;4920;49.594;11.022;2023-07-20T05:18:48;7.22;;;4.80;;
9761;SDS011;4920;49.594;11.022;2023-07-20T05:21:18;7.07;;;4.10;;
9761;SDS011;4920;49.594;11.022;2023-07-20T05:23:49;6.40;;;4.75;;
9761;SDS011;4920;49.594;11.022;2023-07-20T05:26:17;8.57;;;4.45;;
9761;SDS011;4920;49.594;11.022;2023-07-20T05:28:47;6.85;;;4.28;;
9761;SDS011;4920;49.594;11.022;2023-07-20T05:31:16;6.43;;;4.25;;
9761;SDS011;4920;49.594;11.022;2023-07-20T05:33:44;9.43;;;4.63;;
9761;SDS011;4920;49.594;11.022;2023-07-20T05:36:26;5.30;;;3.90;;
9761;SDS011;4920;49.594;11.022;2023-07-20T05:38:57;6.70;;;4.38;;
9761;SDS011;4920;49.594;11.022;2023-07-20T05:41:25;12.05;;;4.13;;
9761;SDS011;4920;49.594;11.022;2023-07-20T05:43:54;14.45;;;4.25;;
9761;SDS011;4920;49.594;11.022;2023-07-20T05:46:26;7.93;;;3.90;;
9761;SDS011;4920;49.594;11.022;2023-07-20T05:49:12;6.57;;;3.78;;
9761;SDS011;4920;49.594;11.022;2023-07-20T05:51:41;7.78;;;4.13;;
9761;SDS011;4920;49.594;11.022;2023-07-20T05:54:11;7.55;;;3.67;;
9761;SDS011;4920;49.594;11.022;2023-07-20T05:56:40;8.38;;;3.95;;
9761;SDS011;4920;49.594;11.022;2023-07-20T05:59:09;7.05;;;3.60;;
9761;SDS011;4920;49.594;11.022;2023-07-20T06:01:38;4.68;;;3.40;;
9761;SDS011;4920;49.594;11.022;2023-07-20T06:04:07;6.25;;;3.67;;
9761;SDS011;4920;49.594;11.022;2023-07-20T06:06:36;7.32;;;3.35;;
9761;SDS011;4920;49.594;11.022;2023-07-20T06:09:05;9.23;;;3.55;;
9761;SDS011;4920;49.594;11.022;2023-07-20T06:11:40;7.07;;;3.20;;
9761;SDS011;4920;49.594;11.022;2023-07-20T06:14:08;6.55;;;3.55;;
9761;SDS011;4920;49.594;11.022;2023-07-20T06:16:37;6.43;;;3.30;;
9761;SDS011;4920;49.594;11.022;2023-07-20T06:19:06;5.80;;;3.50;;
9761;SDS011;4920;49.594;11.022;2023-07-20T06:21:38;7.03;;;3.33;;
9761;SDS011;4920;49.594;11.022;2023-07-20T06:24:06;6.00;;;3.45;;
9761;SDS011;4920;49.594;11.022;2023-07-20T06:26:35;5.10;;;2.83;;
9761;SDS011;4920;49.594;11.022;2023-07-20T06:29:07;9.05;;;3.10;;
9761;SDS011;4920;49.594;11.022;2023-07-20T06:31:37;6.00;;;3.60;;
9761;SDS011;4920;49.594;11.022;2023-07-20T06:34:06;8.20;;;3.20;;
9761;SDS011;4920;49.594;11.022;2023-07-20T06:36:35;8.02;;;3.78;;
9761;SDS011;4920;49.594;11.022;2023-07-20T06:39:04;6.45;;;3.92;;
9761;SDS011;4920;49.594;11.022;2023-07-20T06:41:36;5.93;;;3.60;;
9761;SDS011;4920;49.594;11.022;2023-07-20T06:44:09;9.13;;;3.88;;
9761;SDS011;4920;49.594;11.022;2023-07-20T06:46:38;6.82;;;3.65;;
9761;SDS011;4920;49.594;11.022;2023-07-20T06:49:07;5.40;;;3.70;;
9761;SDS011;4920;49.594;11.022;2023-07-20T06:51:39;7.82;;;3.95;;
9761;SDS011;4920;49.594;11.022;2023-07-20T06:54:07;5.47;;;3.50;;
9761;SDS011;4920;49.594;11.022;2023-07-20T06:56:36;8.85;;;4.05;;
9761;SDS011;4920;49.594;11.022;2023-07-20T06:59:13;8.45;;;3.75;;
9761;SDS011;4920;49.594;11.022;2023-07-20T07:01:42;10.07;;;3.88;;
9761;SDS011;4920;49.594;11.022;2023-07-20T07:04:11;5.50;;;3.40;;
9761;SDS011;4920;49.594;11.022;2023-07-20T07:06:40;8.93;;;3.83;;
9761;SDS011;4920;49.594;11.022;2023-07-20T07:09:09;7.82;;;3.17;;
9761;SDS011;4920;49.594;11.022;2023-07-20T07:11:37;5.72;;;2.88;;
9761;SDS011;4920;49.594;11.022;2023-07-20T07:14:06;10.82;;;5.30;;
9761;SDS011;4920;49.594;11.022;2023-07-20T07:16:37;6.07;;;3.10;;
9761;SDS011;4920;49.594;11.022;2023-07-20T07:19:05;6.07;;;2.95;;
9761;SDS011;4920;49.594;11.022;2023-07-20T07:21:35;4.68;;;2.78;;
9761;SDS011;4920;49.594;11.022;2023-07-20T07:24:04;6.32;;;2.60;;
9761;SDS011;4920;49.594;11.022;2023-07-20T07:26:34;4.82;;;2.95;;
9761;SDS011;4920;49.594;11.022;2023-07-20T07:29:03;5.10;;;2.83;;
9761;SDS011;4920;49.594;11.022;2023-07-20T07:31:33;4.97;;;2.85;;
9761;SDS011;4920;49.594;11.022;2023-07-20T07:34:05;6.30;;;2.50;;
9761;SDS011;4920;49.594;11.022;2023-07-20T07:36:33;5.75;;;2.80;;
9761;SDS011;4920;49.594;11.022;2023-07-20T07:39:03;9.30;;;2.95;;
9761;SDS011;4920;49.594;11.022;2023-07-20T07:41:35;6.78;;;2.80;;
9761;SDS011;4920;49.594;11.022;2023-07-20T07:44:04;3.78;;;2.50;;
9761;SDS011;4920;49.594;11.022;2023-07-20T07:46:33;6.40;;;2.80;;
9761;SDS011;4920;49.594;11.022;2023-07-20T07:49:02;4.40;;;2.88;;
9761;SDS011;4920;49.594;11.022;2023-07-20T07:51:32;4.05;;;2.58;;
9761;SDS011;4920;49.594;11.022;2023-07-20T07:54:01;11.05;;;5.55;;
9761;SDS011;4920;49.594;11.022;2023-07-20T07:56:30;18.58;;;3.83;;
9761;SDS011;4920;49.594;11.022;2023-07-20T07:58:59;6.63;;;2.80;;
9761;SDS011;4920;49.594;11.022;2023-07-20T08:01:29;4.25;;;2.60;;
9761;SDS011;4920;49.594;11.022;2023-07-20T08:03:58;6.22;;;3.20;;
9761;SDS011;4920;49.594;11.022;2023-07-20T08:06:27;5.47;;;3.50;;
9761;SDS011;4920;49.594;11.022;2023-07-20T08:08:58;11.23;;;2.63;;
9761;SDS011;4920;49.594;11.022;2023-07-20T08:11:27;4.63;;;2.60;;
9761;SDS011;4920;49.594;11.022;2023-07-20T08:13:57;6.95;;;2.50;;
9761;SDS011;4920;49.594;11.022;2023-07-20T08:16:27;5.55;;;2.30;;
9761;SDS011;4920;49.594;11.022;2023-07-20T08:18:56;6.75;;;2.30;;
9761;SDS011;4920;49.594;11.022;2023-07-20T08:21:26;4.80;;;2.55;;
9761;SDS011;4920;49.594;11.022;2023-07-20T08:23:55;5.80;;;2.63;;
9761;SDS011;4920;49.594;11.022;2023-07-20T08:26:25;5.30;;;2.60;;
9761;SDS011;4920;49.594;11.022;2023-07-20T08:28:54;5.57;;;2.40;;
9761;SDS011;4920;49.594;11.022;2023-07-20T08:31:23;3.97;;;2.25;;
9761;SDS011;4920;49.594;11.022;2023-07-20T08:33:53;5.53;;;2.70;;
9761;SDS011;4920;49.594;11.022;2023-07-20T08:36:23;7.32;;;2.70;;
9761;SDS011;4920;49.594;11.022;2023-07-20T08:38:53;4.82;;;2.85;;
9761;SDS011;4920;49.594;11.022;2023-07-20T08:41:22;4.90;;;2.78;;
9761;SDS011;4920;49.594;11.022;2023-07-20T08:43:53;3.78;;;2.42;;
9761;SDS011;4920;49.594;11.022;2023-07-20T08:46:25;6.28;;;2.70;;
9761;SDS011;4920;49.594;11.022;2023-07-20T08:48:57;5.32;;;2.83;;
9761;SDS011;4920;49.594;11.022;2023-07-20T08:51:29;4.47;;;2.40;;
9761;SDS011;4920;49.594;11.022;2023-07-20T08:53:58;4.55;;;2.50;;
9761;SDS011;4920;49.594;11.022;2023-07-20T08:56:28;4.68;;;2.33;;
9761;SDS011;4920;49.594;11.022;2023-07-20T08:59:01;7.25;;;2.35;;
9761;SDS011;4920;49.594;11.022;2023-07-20T09:01:31;5.20;;;2.42;;
9761;SDS011;4920;49.594;11.022;2023-07-20T09:04:04;5.82;;;2.30;;
9761;SDS011;4920;49.594;11.022;2023-07-20T09:06:34;5.22;;;2.28;;
9761;SDS011;4920;49.594;11.022;2023-07-20T09:09:04;5.82;;;2.15;;
9761;SDS011;4920;49.594;11.022;2023-07-20T09:11:33;3.20;;;2.28;;
9761;SDS011;4920;49.594;11.022;2023-07-20T09:14:04;4.20;;;2.13;;
9761;SDS011;4920;49.594;11.022;2023-07-20T09:16:39;5.22;;;2.17;;
9761;SDS011;4920;49.594;11.022;2023-07-20T09:19:16;3.30;;;2.28;;
9761;SDS011;4920;49.594;11.022;2023-07-20T09:21:46;7.50;;;2.45;;
9761;SDS011;4920;49.594;11.022;2023-07-20T09:24:18;5.07;;;2.30;;
9761;SDS011;4920;49.594;11.022;2023-07-20T09:26:49;5.00;;;2.20;;
9761;SDS011;4920;49.594;11.022;2023-07-20T09:29:20;5.05;;;2.30;;
9761;SDS011;4920;49.594;11.022;2023-07-20T09:31:58;3.65;;;1.85;;
9761;SDS011;4920;49.594;11.022;2023-07-20T09:34:28;6.97;;;2.00;;
9761;SDS011;4920;49.594;11.022;2023-07-20T09:37:01;2.30;;;1.77;;
9761;SDS011;4920;49.594;11.022;2023-07-20T09:39:32;4.50;;;1.90;;
9761;SDS011;4920;49.594;11.022;2023-07-20T09:42:01;5.40;;;2.03;;
9761;SDS011;4920;49.594;11.022;2023-07-20T09:44:36;4.53;;;2.22;;
9761;SDS011;4920;49.594;11.022;2023-07-20T09:47:08;8.05;;;2.70;;
9761;SDS011;4920;49.594;11.022;2023-07-20T09:49:39;8.00;;;2.38;;
9761;SDS011;4920;49.594;11.022;2023-07-20T09:52:12;3.78;;;1.95;;
9761;SDS011;4920;49.594;11.022;2023-07-20T09:55:02;4.82;;;1.80;;
9761;SDS011;4920;49.594;11.022;2023-07-20T09:57:32;3.10;;;2.00;;
9761;SDS011;4920;49.594;11.022;2023-07-20T10:00:04;6.35;;;1.73;;
9761;SDS011;4920;49.594;11.022;2023-07-20T10:02:44;12.82;;;3.05;;
9761;SDS011;4920;49.594;11.022;2023-07-20T10:05:14;5.95;;;1.55;;
9761;SDS011;4920;49.594;11.022;2023-07-20T10:07:43;3.67;;;1.60;;
9761;SDS011;4920;49.594;11.022;2023-07-20T10:10:14;3.15;;;1.77;;
9761;SDS011;4920;49.594;11.022;2023-07-20T10:12:47;5.75;;;1.73;;
9761;SDS011;4920;49.594;11.022;2023-07-20T10:15:19;2.58;;;1.80;;
9761;SDS011;4920;49.594;11.022;2023-07-20T10:17:57;5.47;;;1.80;;
9761;SDS011;4920;49.594;11.022;2023-07-20T10:20:30;4.18;;;1.63;;
9761;SDS011;4920;49.594;11.022;2023-07-20T10:23:01;3.80;;;1.70;;
9761;SDS011;4920;49.594;11.022;2023-07-20T10:31:23;4.20;;;1.45;;
9761;SDS011;4920;49.594;11.022;2023-07-20T10:33:53;2.88;;;1.70;;
9761;SDS011;4920;49.594;11.022;2023-07-20T10:39:42;1.98;;;1.23;;
9761;SDS011;4920;49.594;11.022;2023-07-20T10:42:11;3.60;;;1.40;;
9761;SDS011;4920;49.594;11.022;2023-07-20T10:44:40;1.65;;;1.50;;
9761;SDS011;4920;49.594;11.022;2023-07-20T10:47:12;3.17;;;1.50;;
9761;SDS011;4920;49.594;11.022;2023-07-20T10:52:36;3.75;;;1.48;;
9761;SDS011;4920;49.594;11.022;2023-07-20T10:55:10;1.83;;;1.30;;
9761;SDS011;4920;49.594;11.022;2023-07-20T10:57:39;4.65;;;1.40;;
9761;SDS011;4920;49.594;11.022;2023-07-20T11:00:10;2.35;;;1.45;;
9761;SDS011;4920;49.594;11.022;2023-07-20T11:02:45;1.73;;;1.40;;
9761;SDS011;4920;49.594;11.022;2023-07-20T11:05:34;3.80;;;1.58;;
9761;SDS011;4920;49.594;11.022;2023-07-20T11:08:06;2.65;;;1.42;;
9761;SDS011;4920;49.594;11.022;2023-07-20T11:10:38;4.57;;;1.67;;
9761;SDS011;4920;49.594;11.022;2023-07-20T11:13:15;3.65;;;1.80;;
9761;SDS011;4920;49.594;11.022;2023-07-20T11:15:45;2.20;;;1.42;;
9761;SDS011;4920;49.594;11.022;2023-07-20T11:18:16;2.75;;;1.67;;
9761;SDS011;4920;49.594;11.022;2023-07-20T11:20:49;3.28;;;1.70;;
9761;SDS011;4920;49.594;11.022;2023-07-20T11:23:19;4.25;;;1.52;;
9761;SDS011;4920;49.594;11.022;2023-07-20T11:25:50;2.35;;;1.75;;
9761;SDS011;4920;49.594;11.022;2023-07-20T11:28:19;3.03;;;1.58;;
9761;SDS011;4920;49.594;11.022;2023-07-20T11:30:50;2.00;;;1.50;;
9761;SDS011;4920;49.594;11.022;2023-07-20T11:33:25;5.03;;;1.80;;
9761;SDS011;4920;49.594;11.022;2023-07-20T11:35:54;3.53;;;1.70;;
9761;SDS011;4920;49.594;11.022;2023-07-20T11:38:24;3.60;;;1.60;;
9761;SDS011;4920;49.594;11.022;2023-07-20T11:40:53;2.67;;;1.90;;
9761;SDS011;4920;49.594;11.022;2023-07-20T11:43:22;2.28;;;1.60;;
9761;SDS011;4920;49.594;11.022;2023-07-20T11:45:53;3.90;;;1.80;;
9761;SDS011;4920;49.594;11.022;2023-07-20T11:48:22;2.65;;;1.65;;
9761;SDS011;4920;49.594;11.022;2023-07-20T11:50:52;3.13;;;1.80;;
9761;SDS011;4920;49.594;11.022;2023-07-20T11:53:21;4.43;;;1.60;;
9761;SDS011;4920;49.594;11.022;2023-07-20T11:55:52;4.35;;;1.50;;
9761;SDS011;4920;49.594;11.022;2023-07-20T11:58:21;3.45;;;1.67;;
9761;SDS011;4920;49.594;11.022;2023-07-20T12:00:50;1.88;;;1.48;;
9761;SDS011;4920;49.594;11.022;2023-07-20T12:03:19;3.28;;;1.40;;
9761;SDS011;4920;49.594;11.022;2023-07-20T12:05:48;2.85;;;1.58;;
9761;SDS011;4920;49.594;11.022;2023-07-20T12:08:29;5.40;;;1.60;;
9761;SDS011;4920;49.594;11.022;2023-07-20T12:10:58;3.00;;;1.40;;
9761;SDS011;4920;49.594;11.022;2023-07-20T12:13:35;3.40;;;1.50;;
9761;SDS011;4920;49.594;11.022;2023-07-20T12:16:10;1.77;;;1.40;;
9761;SDS011;4920;49.594;11.022;2023-07-20T12:18:41;3.92;;;1.58;;
9761;SDS011;4920;49.594;11.022;2023-07-20T12:21:10;2.13;;;1.42;;
9761;SDS011;4920;49.594;11.022;2023-07-20T12:23:41;2.38;;;1.40;;
9761;SDS011;4920;49.594;11.022;2023-07-20T12:26:10;3.53;;;1.52;;
9761;SDS011;4920;49.594;11.022;2023-07-20T12:28:42;1.65;;;1.50;;
9761;SDS011;4920;49.594;11.022;2023-07-20T12:31:11;4.22;;;1.58;;
9761;SDS011;4920;49.594;11.022;2023-07-20T12:33:40;1.85;;;1.40;;
9761;SDS011;4920;49.594;11.022;2023-07-20T12:36:09;2.30;;;1.48;;
9761;SDS011;4920;49.594;11.022;2023-07-20T12:38:39;4.93;;;1.58;;
9761;SDS011;4920;49.594;11.022;2023-07-20T12:41:10;3.25;;;1.52;;
9761;SDS011;4920;49.594;11.022;2023-07-20T12:43:41;2.28;;;1.40;;
9761;SDS011;4920;49.594;11.022;2023-07-20T12:46:10;2.65;;;1.70;;
9761;SDS011;4920;49.594;11.022;2023-07-20T12:48:40;3.75;;;1.60;;
9761;SDS011;4920;49.594;11.022;2023-07-20T12:51:13;2.85;;;1.30;;
9761;SDS011;4920;49.594;11.022;2023-07-20T12:53:44;2.97;;;1.50;;
9761;SDS011;4920;49.594;11.022;2023-07-20T12:56:13;4.32;;;1.60;;
9761;SDS011;4920;49.594;11.022;2023-07-20T12:58:44;2.10;;;1.52;;
9761;SDS011;4920;49.594;11.022;2023-07-20T13:01:16;2.63;;;1.45;;
9761;SDS011;4920;49.594;11.022;2023-07-20T13:03:45;3.17;;;1.65;;
9761;SDS011;4920;49.594;11.022;2023-07-20T13:06:16;2.17;;;1.52;;
9761;SDS011;4920;49.594;11.022;2023-07-20T13:08:50;3.00;;;1.50;;
9761;SDS011;4920;49.594;11.022;2023-07-20T13:11:22;3.60;;;1.67;;
9761;SDS011;4920;49.594;11.022;2023-07-20T13:13:52;1.75;;;1.40;;
9761;SDS011;4920;49.594;11.022;2023-07-20T13:16:20;2.38;;;1.52;;
9761;SDS011;4920;49.594;11.022;2023-07-20T13:18:50;3.72;;;1.80;;
9761;SDS011;4920;49.594;11.022;2023-07-20T13:21:19;3.13;;;1.50;;
9761;SDS011;4920;49.594;11.022;2023-07-20T13:23:53;4.35;;;1.70;;
9761;SDS011;4920;49.594;11.022;2023-07-20T13:26:22;1.90;;;1.80;;
9761;SDS011;4920;49.594;11.022;2023-07-20T13:28:50;8.77;;;1.98;;
9761;SDS011;4920;49.594;11.022;2023-07-20T13:31:21;7.05;;;1.80;;
9761;SDS011;4920;49.594;11.022;2023-07-20T13:33:50;1.95;;;1.40;;
9761;SDS011;4920;49.594;11.022;2023-07-20T13:36:25;2.28;;;1.60;;
9761;SDS011;4920;49.594;11.022;2023-07-20T13:38:58;3.67;;;1.77;;
9761;SDS011;4920;49.594;11.022;2023-07-20T13:41:26;2.10;;;1.50;;
9761;SDS011;4920;49.594;11.022;2023-07-20T13:43:56;3.08;;;1.83;;
9761;SDS011;4920;49.594;11.022;2023-07-20T13:46:25;2.90;;;1.75;;
9761;SDS011;4920;49.594;11.022;2023-07-20T13:48:56;2.95;;;1.60;;
9761;SDS011;4920;49.594;11.022;2023-07-20T13:51:25;2.13;;;1.63;;
9761;SDS011;4920;49.594;11.022;2023-07-20T13:53:54;2.30;;;1.60;;
9761;SDS011;4920;49.594;11.022;2023-07-20T13:56:24;2.50;;;1.63;;
9761;SDS011;4920;49.594;11.022;2023-07-20T13:58:53;2.50;;;1.60;;
9761;SDS011;4920;49.594;11.022;2023-07-20T14:01:24;3.80;;;1.65;;
9761;SDS011;4920;49.594;11.022;2023-07-20T14:03:56;3.22;;;1.65;;
9761;SDS011;4920;49.594;11.022;2023-07-20T14:06:31;3.22;;;1.60;;
9761;SDS011;4920;49.594;11.022;2023-07-20T14:09:00;2.83;;;1.70;;
9761;SDS011;4920;49.594;11.022;2023-07-20T14:11:31;3.88;;;1.92;;
9761;SDS011;4920;49.594;11.022;2023-07-20T14:14:03;3.80;;;1.70;;
9761;SDS011;4920;49.594;11.022;2023-07-20T14:19:22;3.97;;;1.60;;
9761;SDS011;4920;49.594;11.022;2023-07-20T14:21:53;3.20;;;1.70;;
9761;SDS011;4920;49.594;11.022;2023-07-20T14:24:21;1.63;;;1.40;;
9761;SDS011;4920;49.594;11.022;2023-07-20T14:26:51;3.50;;;1.75;;
9761;SDS011;4920;49.594;11.022;2023-07-20T14:29:21;2.45;;;1.58;;
9761;SDS011;4920;49.594;11.022;2023-07-20T14:31:53;4.97;;;1.60;;
9761;SDS011;4920;49.594;11.022;2023-07-20T14:34:22;2.08;;;1.50;;
9761;SDS011;4920;49.594;11.022;2023-07-20T14:36:50;3.03;;;1.73;;
9761;SDS011;4920;49.594;11.022;2023-07-20T14:39:19;5.65;;;1.80;;
9761;SDS011;4920;49.594;11.022;2023-07-20T14:41:49;2.65;;;1.60;;
9761;SDS011;4920;49.594;11.022;2023-07-20T14:44:20;2.63;;;1.58;;
9761;SDS011;4920;49.594;11.022;2023-07-20T14:46:48;2.90;;;1.73;;
9761;SDS011;4920;49.594;11.022;2023-07-20T14:49:37;3.15;;;1.75;;
9761;SDS011;4920;49.594;11.022;2023-07-20T14:52:06;3.33;;;1.70;;
9761;SDS011;4920;49.594;11.022;2023-07-20T14:54:38;3.92;;;1.50;;
9761;SDS011;4920;49.594;11.022;2023-07-20T14:57:08;4.65;;;1.90;;
9761;SDS011;4920;49.594;11.022;2023-07-20T14:59:41;8.38;;;2.10;;
9761;SDS011;4920;49.594;11.022;2023-07-20T15:02:11;3.47;;;1.83;;
9761;SDS011;4920;49.594;11.022;2023-07-20T15:04:45;3.58;;;1.40;;
9761;SDS011;4920;49.594;11.022;2023-07-20T15:07:15;5.45;;;1.90;;
9761;SDS011;4920;49.594;11.022;2023-07-20T15:09:45;1.80;;;1.60;;
9761;SDS011;4920;49.594;11.022;2023-07-20T15:12:15;2.38;;;1.60;;
9761;SDS011;4920;49.594;11.022;2023-07-20T15:14:44;7.57;;;1.90;;
9761;SDS011;4920;49.594;11.022;2023-07-20T15:17:30;4.82;;;1.65;;
9761;SDS011;4920;49.594;11.022;2023-07-20T15:19:59;3.17;;;1.55;;
9761;SDS011;4920;49.594;11.022;2023-07-20T15:22:27;5.38;;;2.10;;
9761;SDS011;4920;49.594;11.022;2023-07-20T15:24:56;3.13;;;1.65;;
9761;SDS011;4920;49.594;11.022;2023-07-20T15:27:26;4.75;;;1.67;;
9761;SDS011;4920;49.594;11.022;2023-07-20T15:29:55;2.90;;;1.63;;
9761;SDS011;4920;49.594;11.022;2023-07-20T15:32:23;5.35;;;1.67;;